Time;durP1;ratioP1;P1;durP2;ratioP2;P2;SDS_P1;SDS_P2;PMS_P1;PMS_P2;Temp;Humidity;BMP_temperature;BMP_pressure;BME280_temperature;BME280_humidity;BME280_pressure;Samples;Min_cycle;Max_cycle;Signal;HPM_P1;HPM_P2
2023/01/21 00:01:11;;;;;;;0.13;0.13;;;;;;;4.54;66.11;99285.34;4373320;32;34173;-82
2023/01/21 00:03:39;;;;;;;1.65;0.88;;;;;;;4.27;66.28;99300.03;4375933;32;33880;-83
2023/01/21 00:06:07;;;;;;;1.20;0.85;;;;;;;4.13;67.01;99299.53;4358039;32;34170;-82
2023/01/21 00:08:35;;;;;;;1.12;1.12;;;;;;;4.32;66.80;99285.06;4377524;32;33540;-82
2023/01/21 00:11:07;;;;;;;4.55;2.80;;;;;;;4.34;66.51;99285.88;4377370;32;33939;-82
2023/01/21 00:13:35;;;;;;;0.40;0.40;;;;;;;4.40;65.83;99289.22;4367958;32;34129;-82
2023/01/21 00:16:04;;;;;;;4.53;1.77;;;;;;;4.51;65.85;99288.06;4384338;32;32462;-83
2023/01/21 00:18:32;;;;;;;1.20;1.20;;;;;;;4.51;65.89;99289.78;4380436;32;32648;-83
2023/01/21 00:21:00;;;;;;;2.62;2.42;;;;;;;4.33;66.14;99301.63;4380174;32;33728;-83
2023/01/21 00:23:28;;;;;;;1.25;1.25;;;;;;;4.18;66.88;99310.72;4379526;32;33960;-83
2023/01/21 00:26:00;;;;;;;2.78;0.98;;;;;;;4.25;66.46;99311.41;4381309;32;33784;-83
2023/01/21 00:28:29;;;;;;;1.52;1.30;;;;;;;4.27;66.35;99320.94;4378099;32;32620;-83
2023/01/21 00:31:01;;;;;;;2.05;0.80;;;;;;;4.47;66.04;99312.56;4383757;32;34349;-84
2023/01/21 00:33:30;;;;;;;2.03;1.90;;;;;;;4.19;66.82;99316.78;4366866;32;33815;-83
2023/01/21 00:35:58;;;;;;;1.12;1.02;;;;;;;4.35;66.09;99313.72;4379811;32;32714;-82
2023/01/21 00:38:26;;;;;;;1.35;1.30;;;;;;;4.21;66.51;99308.00;4376641;32;32510;-82
2023/01/21 00:41:08;;;;;;;1.30;1.20;;;;;;;4.01;67.17;99310.25;4379219;32;33930;-82
2023/01/21 00:43:36;;;;;;;1.83;0.45;;;;;;;4.28;66.23;99306.97;4379425;32;34673;-82
2023/01/21 00:46:04;;;;;;;1.37;1.35;;;;;;;4.70;64.70;99298.88;4379318;32;33594;-82
2023/01/21 00:48:33;;;;;;;0.20;0.20;;;;;;;4.16;67.08;99307.25;4377742;32;32498;-82
2023/01/21 00:51:00;;;;;;;0.47;0.47;;;;;;;3.94;67.74;99306.97;4379457;32;33165;-82
2023/01/21 00:53:31;;;;;;;0.28;0.28;;;;;;;4.11;67.21;99304.75;4388422;32;33259;-82
2023/01/21 00:56:00;;;;;;;0.22;0.22;;;;;;;4.13;67.24;99302.13;4376735;32;33236;-82
2023/01/21 00:58:28;;;;;;;1.42;1.33;;;;;;;4.17;67.04;99292.44;4377426;32;33561;-82
2023/01/21 01:01:04;;;;;;;0.32;0.28;;;;;;;4.35;66.31;99291.97;4394938;32;33774;-82
2023/01/21 01:03:32;;;;;;;1.52;1.42;;;;;;;4.05;67.09;99289.25;4363800;32;32690;-82
2023/01/21 01:06:09;;;;;;;1.73;1.62;;;;;;;4.11;67.16;99296.06;4357071;32;33829;-81
2023/01/21 01:08:37;;;;;;;1.00;1.00;;;;;;;3.94;67.79;99293.91;4365636;32;33739;-82
2023/01/21 01:11:05;;;;;;;1.58;1.45;;;;;;;4.28;66.38;99298.25;4376628;32;33369;-82
2023/01/21 01:13:34;;;;;;;7.95;1.67;;;;;;;4.27;66.79;99302.63;4364236;32;34697;-82
2023/01/21 01:16:02;;;;;;;1.98;1.52;;;;;;;4.33;66.15;99310.31;4374664;32;34671;-82
2023/01/21 01:18:32;;;;;;;2.90;1.35;;;;;;;4.45;65.84;99303.88;4364453;32;34059;-82
2023/01/21 01:21:00;;;;;;;0.77;0.77;;;;;;;4.23;66.78;99318.44;4363833;32;34540;-82
2023/01/21 01:23:28;;;;;;;0.73;0.73;;;;;;;4.54;65.68;99305.41;4351836;32;32787;-82
2023/01/21 01:26:00;;;;;;;0.47;0.47;;;;;;;4.72;64.92;99306.66;4364091;32;32786;-82
2023/01/21 01:28:29;;;;;;;0.82;0.82;;;;;;;4.65;65.40;99305.94;4375795;32;32255;-82
2023/01/21 01:30:57;;;;;;;0.30;0.30;;;;;;;4.41;66.34;99312.69;4364041;32;33400;-82
2023/01/21 01:33:26;;;;;;;0.25;0.25;;;;;;;4.50;65.60;99303.75;4363122;32;34384;-82
2023/01/21 01:35:53;;;;;;;1.12;1.12;;;;;;;4.66;64.92;99305.06;4364443;32;33419;-82
2023/01/21 01:38:22;;;;;;;2.87;2.20;;;;;;;4.75;64.88;99301.34;4362215;32;32558;-82
2023/01/21 01:40:51;;;;;;;1.45;0.73;;;;;;;4.52;65.75;99295.00;4364065;32;33455;-82
2023/01/21 01:43:53;;;;;;;0.25;0.25;;;;;;;4.65;65.64;99303.34;4364450;32;33033;-82
2023/01/21 01:46:22;;;;;;;1.47;1.37;;;;;;;4.61;65.11;99293.88;4363471;32;32658;-82
2023/01/21 01:48:58;;;;;;;0.45;0.45;;;;;;;4.65;65.22;99295.50;4370704;32;34786;-82
2023/01/21 01:51:32;;;;;;;0.73;0.73;;;;;;;4.57;66.09;99300.09;4364173;32;33109;-82
2023/01/21 01:53:59;;;;;;;0.37;0.37;;;;;;;4.60;65.59;99297.38;4361564;32;33981;-84
2023/01/21 01:56:28;;;;;;;0.77;0.77;;;;;;;4.63;65.23;99302.53;4376207;32;34637;-83
2023/01/21 01:58:56;;;;;;;1.85;1.75;;;;;;;4.56;65.82;99293.16;4361532;32;34079;-84
2023/01/21 02:01:23;;;;;;;1.17;1.08;;;;;;;4.58;65.55;99293.97;4355096;32;34322;-84
2023/01/21 02:03:58;;;;;;;1.15;1.15;;;;;;;4.73;65.33;99288.31;4363834;32;34718;-84
2023/01/21 02:06:26;;;;;;;1.20;1.10;;;;;;;4.85;64.74;99290.59;4360750;32;33507;-84
2023/01/21 02:08:54;;;;;;;0.10;0.10;;;;;;;4.62;65.71;99285.13;4383578;32;33929;-84
2023/01/21 02:11:22;;;;;;;2.25;2.05;;;;;;;4.58;65.87;99293.97;4372288;32;34469;-84
2023/01/21 02:13:52;;;;;;;0.50;0.50;;;;;;;4.47;66.18;99285.56;4383472;32;33237;-84
2023/01/21 02:16:41;;;;;;;0.43;0.43;;;;;;;4.35;66.63;99282.34;4368234;32;33111;-84
2023/01/21 02:19:12;;;;;;;0.95;0.95;;;;;;;4.56;65.89;99285.31;4371297;32;32119;-83
2023/01/21 02:22:12;;;;;;;0.08;0.08;;;;;;;4.23;67.33;99298.38;4377153;32;33614;-83
2023/01/21 02:25:02;;;;;;;1.85;1.70;;;;;;;4.42;66.32;99292.69;4353457;32;34533;-83
2023/01/21 02:27:38;;;;;;;0.80;0.80;;;;;;;4.43;66.36;99289.16;4374476;32;33421;-83
2023/01/21 02:30:32;;;;;;;4.78;2.85;;;;;;;4.59;65.64;99286.06;4380168;32;32887;-83
2023/01/21 02:33:21;;;;;;;1.25;0.90;;;;;;;4.41;66.49;99285.72;4374232;32;34182;-83
2023/01/21 02:36:22;;;;;;;0.45;0.45;;;;;;;4.73;65.01;99293.53;4376727;32;33349;-83
2023/01/21 02:39:28;;;;;;;3.65;1.45;;;;;;;4.33;66.75;99299.84;4363350;32;32483;-83
2023/01/21 02:42:41;;;;;;;0.10;0.10;;;;;;;4.35;66.51;99297.19;4362192;32;33263;-83
2023/01/21 02:45:23;;;;;;;0.43;0.43;;;;;;;4.41;66.21;99294.41;4377733;32;34600;-83
2023/01/21 02:48:19;;;;;;;3.25;3.03;;;;;;;4.39;66.44;99309.28;4369781;32;35063;-83
2023/01/21 02:50:49;;;;;;;0.17;0.17;;;;;;;4.22;67.28;99296.66;4373925;32;32083;-82
2023/01/21 02:53:24;;;;;;;0.28;0.28;;;;;;;4.18;67.61;99295.03;4375941;32;33027;-83
2023/01/21 02:55:52;;;;;;;0.08;0.08;;;;;;;4.50;66.39;99294.16;4361487;32;32307;-83
2023/01/21 02:58:23;;;;;;;1.83;1.33;;;;;;;4.73;65.28;99283.06;4361157;32;32594;-83
2023/01/21 03:01:10;;;;;;;1.55;1.55;;;;;;;4.26;66.88;99282.59;4380898;32;32467;-82
2023/01/21 03:03:58;;;;;;;0.17;0.17;;;;;;;4.14;66.80;99282.94;4391094;32;32386;-82
2023/01/21 03:06:36;;;;;;;0.80;0.80;;;;;;;4.37;66.45;99270.13;4372791;32;32783;-82
2023/01/21 03:09:17;;;;;;;1.58;1.48;;;;;;;4.41;66.06;99270.03;4367011;32;33425;-82
2023/01/21 03:11:55;;;;;;;1.45;1.35;;;;;;;4.51;65.96;99261.91;4389660;32;33855;-82
2023/01/21 03:17:43;;;;;;;1.02;1.02;;;;;;;4.48;66.30;99277.66;4387488;32;32654;-82
2023/01/21 03:20:20;;;;;;;2.40;1.45;;;;;;;3.98;67.36;99292.03;4379035;32;34666;-82
2023/01/21 03:22:52;;;;;;;1.08;1.08;;;;;;;4.26;67.04;99290.44;4380053;32;33528;-82
2023/01/21 03:25:20;;;;;;;;;;;;;;;4.27;66.91;99293.91;4372521;32;33305;-81
2023/01/21 03:27:48;;;;;;;0.82;0.82;;;;;;;4.24;67.13;99297.47;4392851;32;34380;-81
2023/01/21 03:30:20;;;;;;;0.30;0.30;;;;;;;4.26;66.61;99295.66;4365741;32;32921;-81
2023/01/21 03:32:49;;;;;;;3.50;3.25;;;;;;;4.33;66.70;99285.94;4381097;32;32927;-81
2023/01/21 03:35:39;;;;;;;1.50;1.08;;;;;;;4.31;66.63;99296.41;4371584;32;33504;-81
2023/01/21 03:38:39;;;;;;;1.12;1.12;;;;;;;4.49;66.22;99292.44;4377064;32;33587;-81
2023/01/21 03:41:13;;;;;;;1.05;1.05;;;;;;;4.42;66.38;99308.34;4390483;32;33693;-81
2023/01/21 03:43:41;;;;;;;1.05;0.98;;;;;;;4.23;66.96;99307.97;4376410;32;33793;-81
2023/01/21 03:46:20;;;;;;;0.93;0.93;;;;;;;4.46;66.18;99318.66;4377429;32;32901;-81
2023/01/21 03:48:56;;;;;;;0.95;0.95;;;;;;;4.32;66.59;99319.06;4381085;32;33209;-82
2023/01/21 03:51:37;;;;;;;1.08;1.08;;;;;;;4.25;66.66;99330.56;4377777;32;34433;-81
2023/01/21 03:54:05;;;;;;;2.00;1.15;;;;;;;4.49;66.10;99320.34;4373351;32;33823;-81
2023/01/21 03:56:32;;;;;;;3.78;1.85;;;;;;;4.55;65.84;99325.41;4371814;32;33826;-81
2023/01/21 03:59:00;;;;;;;1.75;1.65;;;;;;;4.67;65.25;99327.72;4374794;32;33850;-81
2023/01/21 04:01:28;;;;;;;1.65;1.48;;;;;;;4.59;65.96;99332.28;4386298;32;33772;-81
2023/01/21 04:03:56;;;;;;;1.10;0.90;;;;;;;4.56;65.89;99329.75;4391431;32;34411;-82
2023/01/21 04:06:23;;;;;;;2.17;1.67;;;;;;;4.44;66.31;99338.78;4361127;32;33216;-82
2023/01/21 04:08:51;;;;;;;2.70;2.00;;;;;;;4.56;65.61;99345.44;4372544;32;34545;-81
2023/01/21 04:11:19;;;;;;;1.42;1.40;;;;;;;4.51;65.51;99355.16;4359650;32;32796;-81
2023/01/21 04:13:46;;;;;;;2.75;2.45;;;;;;;4.55;65.61;99360.25;4393275;32;33579;-81
2023/01/21 04:16:14;;;;;;;9.90;1.87;;;;;;;4.54;65.64;99362.91;4373145;32;33340;-81
2023/01/21 04:18:42;;;;;;;1.12;1.12;;;;;;;4.54;65.72;99365.53;4347747;32;32636;-81
2023/01/21 04:21:09;;;;;;;1.55;1.25;;;;;;;4.74;65.08;99351.91;4392861;32;34105;-82
2023/01/21 04:23:37;;;;;;;5.75;2.20;;;;;;;4.84;64.79;99353.37;4374711;32;35335;-81
2023/01/21 04:26:06;;;;;;;1.37;1.37;;;;;;;4.82;64.58;99363.91;4374926;32;31936;-81
2023/01/21 04:28:34;;;;;;;1.60;1.50;;;;;;;4.86;64.35;99362.06;4385802;32;33678;-81
2023/01/21 04:31:01;;;;;;;1.73;1.62;;;;;;;4.95;64.26;99353.09;4372395;32;33499;-81
2023/01/21 04:33:29;;;;;;;2.72;1.77;;;;;;;4.81;64.75;99359.56;4369048;32;32503;-81
2023/01/21 04:35:58;;;;;;;1.48;1.37;;;;;;;5.02;64.27;99357.25;4403901;32;34068;-81
2023/01/21 04:38:26;;;;;;;0.80;0.80;;;;;;;4.95;64.24;99371.41;4379766;32;32772;-82
2023/01/21 04:40:54;;;;;;;1.45;1.45;;;;;;;5.26;63.06;99372.25;4391525;32;33951;-82
2023/01/21 04:43:21;;;;;;;1.15;1.05;;;;;;;4.84;64.88;99384.78;4391861;32;33622;-82
2023/01/21 04:45:49;;;;;;;1.00;1.00;;;;;;;4.81;65.04;99393.56;4366768;32;32354;-82
2023/01/21 04:48:17;;;;;;;1.45;1.35;;;;;;;4.94;64.71;99390.63;4374022;32;33774;-82
2023/01/21 04:50:45;;;;;;;3.60;1.67;;;;;;;4.80;64.78;99398.84;4366559;32;33965;-82
2023/01/21 04:53:13;;;;;;;1.75;1.65;;;;;;;4.60;65.56;99392.41;4392670;32;34483;-81
2023/01/21 04:55:41;;;;;;;0.45;0.45;;;;;;;4.70;65.26;99393.00;4370071;32;32307;-82
2023/01/21 04:58:09;;;;;;;0.75;0.73;;;;;;;4.86;64.59;99388.22;4382869;32;34148;-82
2023/01/21 05:00:36;;;;;;;0.52;0.52;;;;;;;4.58;65.31;99394.19;4386194;32;34740;-82
2023/01/21 05:03:04;;;;;;;1.55;1.45;;;;;;;4.76;65.09;99397.22;4377544;32;32904;-82
2023/01/21 05:05:32;;;;;;;1.27;1.02;;;;;;;4.74;65.02;99399.00;4397881;32;33324;-82
2023/01/21 05:07:59;;;;;;;0.70;0.70;;;;;;;4.81;64.73;99404.03;4386960;32;33791;-82
2023/01/21 05:10:27;;;;;;;2.05;1.85;;;;;;;4.86;64.95;99404.78;4366711;32;34902;-82
2023/01/21 05:12:55;;;;;;;0.43;0.37;;;;;;;4.77;65.25;99409.38;4366593;32;32271;-83
2023/01/21 05:15:23;;;;;;;3.17;2.37;;;;;;;4.97;64.43;99401.00;4393473;32;33232;-82
2023/01/21 05:17:51;;;;;;;0.40;0.40;;;;;;;5.15;63.77;99400.50;4379161;32;34529;-83
2023/01/21 05:20:18;;;;;;;0.65;0.65;;;;;;;4.70;64.85;99411.31;4379001;32;33565;-82
2023/01/21 05:22:47;;;;;;;1.10;1.10;;;;;;;4.79;64.68;99411.06;4381823;32;32496;-82
2023/01/21 05:25:15;;;;;;;0.57;0.57;;;;;;;4.80;64.82;99410.19;4364219;32;32262;-82
2023/01/21 05:27:43;;;;;;;0.52;0.52;;;;;;;5.12;63.57;99416.28;4376214;32;34471;-83
2023/01/21 05:30:11;;;;;;;1.67;1.58;;;;;;;4.49;65.82;99423.16;4372725;32;32946;-83
2023/01/21 05:32:39;;;;;;;0.57;0.57;;;;;;;4.52;66.10;99420.50;4380558;32;32830;-83
2023/01/21 05:35:07;;;;;;;0.37;0.37;;;;;;;4.58;66.05;99430.78;4379593;32;32987;-83
2023/01/21 05:37:35;;;;;;;0.75;0.75;;;;;;;4.52;66.43;99427.47;4378835;32;33296;-83
2023/01/21 05:40:04;;;;;;;1.90;1.80;;;;;;;4.68;65.97;99418.34;4381270;32;33381;-83
2023/01/21 05:42:32;;;;;;;2.42;2.03;;;;;;;4.63;65.95;99413.22;4394878;32;33722;-83
2023/01/21 05:45:00;;;;;;;0.93;0.90;;;;;;;4.58;66.40;99429.94;4377247;32;33269;-83
2023/01/21 05:47:28;;;;;;;0.75;0.47;;;;;;;4.67;66.17;99434.06;4364038;32;33524;-83
2023/01/21 05:49:55;;;;;;;2.62;1.85;;;;;;;4.65;65.85;99439.31;4380196;32;33724;-83
2023/01/21 05:52:23;;;;;;;0.35;0.35;;;;;;;4.85;65.40;99434.47;4378800;32;34352;-83
2023/01/21 05:54:50;;;;;;;1.52;1.48;;;;;;;5.20;63.56;99429.16;4382838;32;32639;-83
2023/01/21 05:57:29;;;;;;;1.65;1.55;;;;;;;4.93;64.15;99431.63;4380041;32;34583;-83
2023/01/21 05:59:57;;;;;;;1.48;1.37;;;;;;;4.73;65.07;99439.13;4380244;32;34129;-83
2023/01/21 06:02:25;;;;;;;0.30;0.30;;;;;;;4.77;65.33;99441.62;4384468;32;33903;-81
2023/01/21 06:04:53;;;;;;;1.00;0.98;;;;;;;4.85;65.33;99446.69;4364236;32;32566;-82
2023/01/21 06:07:21;;;;;;;1.40;1.30;;;;;;;4.86;64.91;99457.09;4363990;32;34285;-81
2023/01/21 06:09:49;;;;;;;0.10;0.10;;;;;;;4.87;65.21;99460.56;4395082;32;34025;-81
2023/01/21 06:12:17;;;;;;;1.17;1.17;;;;;;;4.84;65.15;99464.12;4378697;32;33990;-81
2023/01/21 06:14:45;;;;;;;3.35;3.05;;;;;;;4.84;65.10;99458.91;4376842;32;34036;-82
2023/01/21 06:17:12;;;;;;;0.85;0.75;;;;;;;4.87;65.12;99458.81;4376785;32;34604;-82
2023/01/21 06:19:40;;;;;;;1.58;1.42;;;;;;;4.86;64.86;99466.69;4364353;32;32604;-82
2023/01/21 06:22:13;;;;;;;1.87;1.77;;;;;;;4.93;65.04;99454.31;4361190;32;34360;-82
2023/01/21 06:24:41;;;;;;;4.10;1.87;;;;;;;4.87;65.31;99461.41;4399198;32;33528;-82
2023/01/21 06:27:09;;;;;;;0.30;0.20;;;;;;;5.05;64.77;99469.69;4363563;32;32455;-82
2023/01/21 06:29:37;;;;;;;0.95;0.95;;;;;;;4.84;64.83;99479.84;4375015;32;32866;-83
2023/01/21 06:32:05;;;;;;;0.75;0.75;;;;;;;5.04;64.77;99486.31;4374827;32;35712;-83
2023/01/21 06:34:33;;;;;;;2.47;0.75;;;;;;;5.08;64.79;99494.03;4351163;32;32363;-83
2023/01/21 06:37:00;;;;;;;2.60;0.75;;;;;;;5.06;64.07;99494.97;4374704;32;33769;-83
2023/01/21 06:39:28;;;;;;;0.20;0.20;;;;;;;5.01;64.64;99494.22;4400031;32;33657;-83
2023/01/21 06:41:56;;;;;;;1.95;1.83;;;;;;;5.10;64.29;99500.06;4349599;32;33003;-83
2023/01/21 06:44:23;;;;;;;0.57;0.57;;;;;;;5.04;64.64;99495.00;4377472;32;33488;-82
2023/01/21 06:46:51;;;;;;;2.90;2.70;;;;;;;5.10;64.49;99497.47;4362515;32;32708;-83
2023/01/21 06:49:27;;;;;;;4.28;1.30;;;;;;;5.23;64.16;99498.00;4376008;32;34305;-83
2023/01/21 06:51:55;;;;;;;1.00;1.00;;;;;;;5.12;64.61;99500.03;4374798;32;33707;-83
2023/01/21 06:54:23;;;;;;;1.12;1.05;;;;;;;5.00;65.15;99495.12;4362853;32;32477;-83
2023/01/21 06:56:50;;;;;;;0.28;0.28;;;;;;;4.99;64.96;99496.88;4399815;32;34614;-82
2023/01/21 06:59:18;;;;;;;1.00;1.00;;;;;;;5.16;64.73;99501.66;4354241;32;32753;-83
2023/01/21 07:01:46;;;;;;;1.48;1.37;;;;;;;5.35;63.94;99502.88;4380391;32;34178;-83
2023/01/21 07:04:14;;;;;;;2.47;2.28;;;;;;;5.21;64.47;99499.78;4379206;32;32972;-82
2023/01/21 07:06:41;;;;;;;1.48;1.17;;;;;;;5.19;64.63;99500.75;4366377;32;32080;-83
2023/01/21 07:09:10;;;;;;;1.02;1.02;;;;;;;5.23;64.41;99508.47;4383679;32;33765;-83
2023/01/21 07:11:37;;;;;;;2.53;2.33;;;;;;;5.17;64.74;99506.00;4373869;32;33196;-82
2023/01/21 07:14:05;;;;;;;0.95;0.95;;;;;;;5.43;63.51;99509.69;4366016;32;32637;-83
2023/01/21 07:16:32;;;;;;;0.47;0.47;;;;;;;5.36;63.84;99520.34;4376505;32;32729;-82
2023/01/21 07:19:00;;;;;;;10.68;3.05;;;;;;;5.29;63.85;99518.78;4373502;32;33977;-82
2023/01/21 07:21:28;;;;;;;1.20;1.15;;;;;;;5.28;64.17;99527.53;4344206;32;32746;-82
2023/01/21 07:23:55;;;;;;;1.42;1.42;;;;;;;5.37;64.09;99537.75;4365578;32;32018;-83
2023/01/21 07:26:23;;;;;;;1.27;1.27;;;;;;;5.20;64.53;99550.41;4351521;32;32557;-83
2023/01/21 07:28:51;;;;;;;1.05;1.05;;;;;;;5.18;64.68;99552.22;4366001;32;33959;-83
2023/01/21 07:31:18;;;;;;;0.10;0.10;;;;;;;5.07;65.04;99559.47;4363343;32;32931;-83
2023/01/21 07:33:46;;;;;;;1.75;1.55;;;;;;;5.27;64.54;99558.97;4392531;32;33293;-83
2023/01/21 07:36:14;;;;;;;0.50;0.50;;;;;;;5.19;64.96;99574.87;4370256;32;33951;-83
2023/01/21 07:38:41;;;;;;;1.92;1.83;;;;;;;5.38;64.44;99581.37;4387157;32;33417;-83
2023/01/21 07:41:09;;;;;;;1.95;1.85;;;;;;;5.27;64.76;99572.06;4388680;32;33084;-84
2023/01/21 07:43:36;;;;;;;1.60;1.50;;;;;;;5.34;64.64;99574.47;4367474;32;32917;-83
2023/01/21 07:46:04;;;;;;;0.88;0.88;;;;;;;5.34;64.59;99574.47;4389792;32;33614;-83
2023/01/21 07:48:32;;;;;;;3.05;2.80;;;;;;;5.39;64.46;99582.22;4355325;32;33024;-83
2023/01/21 07:50:59;;;;;;;2.85;1.62;;;;;;;5.36;64.62;99577.94;4375675;32;33142;-83
2023/01/21 07:53:27;;;;;;;0.88;0.85;;;;;;;5.49;64.14;99577.59;4388547;32;34580;-83
2023/01/21 07:55:54;;;;;;;5.40;4.95;;;;;;;5.38;64.35;99581.37;4394553;32;34349;-83
2023/01/21 07:58:23;;;;;;;1.45;0.93;;;;;;;5.33;64.83;99591.09;4361389;32;33693;-83
2023/01/21 08:00:52;;;;;;;2.75;2.62;;;;;;;5.44;64.42;99592.56;4385822;32;33482;-83
2023/01/21 08:03:22;;;;;;;2.20;2.05;;;;;;;5.57;64.09;99591.34;4370590;32;34040;-83
2023/01/21 08:05:50;;;;;;;5.55;3.55;;;;;;;5.57;64.21;99594.84;4380429;32;33479;-83
2023/01/21 08:08:18;;;;;;;2.72;1.50;;;;;;;5.53;64.40;99594.94;4394609;32;34088;-83
2023/01/21 08:10:55;;;;;;;0.95;0.95;;;;;;;5.51;64.51;99594.16;4394928;32;34403;-83
2023/01/21 08:13:23;;;;;;;1.40;1.33;;;;;;;5.51;64.52;99597.63;4393490;32;33408;-83
2023/01/21 08:15:52;;;;;;;2.08;1.33;;;;;;;5.86;63.09;99596.66;4384352;32;33686;-83
2023/01/21 08:18:21;;;;;;;1.05;1.05;;;;;;;5.78;63.37;99600.38;4383824;32;33817;-83
2023/01/21 08:20:53;;;;;;;1.60;1.50;;;;;;;5.79;63.34;99602.97;4384076;32;33791;-83
2023/01/21 08:23:21;;;;;;;;;;;;;;;5.81;63.02;99598.56;4361439;32;33392;-83
2023/01/21 08:25:49;;;;;;;5.65;2.50;;;;;;;5.56;63.88;99606.22;4385498;32;32540;-83
2023/01/21 08:28:16;;;;;;;2.28;2.08;;;;;;;5.59;64.06;99600.03;4375023;32;34681;-83
2023/01/21 08:30:44;;;;;;;8.95;3.33;;;;;;;5.56;64.10;99605.37;4363285;32;33874;-83
2023/01/21 08:33:12;;;;;;;4.12;1.30;;;;;;;5.60;64.17;99600.00;4384914;32;32841;-83
2023/01/21 08:35:40;;;;;;;0.70;0.70;;;;;;;5.58;64.37;99598.31;4371629;32;32649;-83
2023/01/21 08:38:08;;;;;;;0.95;0.95;;;;;;;5.53;64.48;99614.16;4370937;32;33878;-84
2023/01/21 08:40:35;;;;;;;1.33;1.23;;;;;;;5.73;64.00;99623.22;4381615;32;33964;-83
2023/01/21 08:43:03;;;;;;;2.92;1.67;;;;;;;5.65;64.02;99619.06;4398480;32;33304;-83
2023/01/21 08:45:31;;;;;;;1.67;1.58;;;;;;;5.77;63.75;99624.88;4359872;32;32600;-83
2023/01/21 08:48:02;;;;;;;0.73;0.73;;;;;;;5.74;63.84;99620.56;4373695;32;34695;-83
2023/01/21 08:50:30;;;;;;;1.20;1.12;;;;;;;5.70;63.83;99621.56;4364765;32;33106;-83
2023/01/21 08:52:57;;;;;;;2.28;1.95;;;;;;;5.74;63.66;99619.69;4371897;32;32348;-83
2023/01/21 08:55:25;;;;;;;1.75;1.52;;;;;;;5.81;63.73;99626.50;4389938;32;33804;-83
2023/01/21 08:57:54;;;;;;;2.50;1.92;;;;;;;5.63;64.27;99617.38;4384282;32;33928;-83
2023/01/21 09:00:22;;;;;;;1.23;1.23;;;;;;;5.77;64.11;99617.88;4371985;32;32824;-83
2023/01/21 09:02:50;;;;;;;0.60;0.60;;;;;;;5.86;63.73;99625.47;4396391;32;32212;-83
2023/01/21 09:05:19;;;;;;;0.65;0.65;;;;;;;5.86;63.83;99628.09;4362791;32;32889;-83
2023/01/21 09:07:46;;;;;;;1.25;1.25;;;;;;;5.87;64.09;99632.44;4383216;32;33026;-83
2023/01/21 09:10:59;;;;;;;1.85;1.52;;;;;;;5.94;64.00;99621.84;4385079;32;33467;-83
2023/01/21 09:13:06;;;;;;;4.35;4.05;;;;;;;6.04;63.75;99628.53;4390644;32;33319;-83
2023/01/21 09:15:38;;;;;;;0.52;0.52;;;;;;;6.06;63.96;99630.19;4375448;32;33429;-82
2023/01/21 09:18:06;;;;;;;;;;;;;;;5.99;64.20;99626.03;4344556;32;33196;-83
2023/01/21 09:20:34;;;;;;;3.37;1.73;;;;;;;6.09;63.98;99629.28;4380490;32;33871;-83
2023/01/21 09:23:22;;;;;;;0.45;0.45;;;;;;;6.14;63.83;99622.13;4369707;32;33957;-83
2023/01/21 09:25:51;;;;;;;2.03;1.92;;;;;;;6.13;64.18;99623.91;4365715;32;32942;-83
2023/01/21 09:28:20;;;;;;;0.95;0.95;;;;;;;6.25;64.08;99625.28;4378599;32;33965;-83
2023/01/21 09:30:48;;;;;;;2.40;2.20;;;;;;;6.57;62.39;99628.75;4375776;32;33471;-83
2023/01/21 09:33:15;;;;;;;4.40;2.72;;;;;;;6.17;63.52;99629.88;4366320;32;32506;-83
2023/01/21 09:35:43;;;;;;;1.70;1.58;;;;;;;6.15;63.74;99636.94;4364228;32;34104;-83
2023/01/21 09:38:11;;;;;;;4.65;2.75;;;;;;;6.14;64.02;99636.09;4379008;32;34141;-83
2023/01/21 09:40:43;;;;;;;4.78;3.45;;;;;;;6.23;63.93;99632.34;4370579;32;32614;-83
2023/01/21 09:43:17;;;;;;;1.85;1.35;;;;;;;6.19;64.10;99637.72;4377833;32;32899;-83
2023/01/21 09:45:46;;;;;;;0.73;0.73;;;;;;;6.08;64.06;99635.41;4363674;32;34327;-83
2023/01/21 09:48:21;;;;;;;0.30;0.30;;;;;;;6.52;62.72;99623.62;4374971;32;32648;-83
2023/01/21 09:50:49;;;;;;;1.60;1.50;;;;;;;6.47;63.05;99627.31;4387999;32;31815;-83
2023/01/21 09:53:26;;;;;;;0.30;0.30;;;;;;;6.15;64.26;99624.69;4374954;32;32525;-83
2023/01/21 09:55:57;;;;;;;1.55;1.05;;;;;;;6.72;62.47;99616.91;4362327;32;32835;-83
2023/01/21 09:58:30;;;;;;;2.08;1.92;;;;;;;6.39;63.64;99625.75;4377895;32;31977;-83
2023/01/21 10:01:14;;;;;;;2.30;1.37;;;;;;;6.41;63.70;99623.97;4366524;32;35687;-83
2023/01/21 10:03:59;;;;;;;1.55;1.45;;;;;;;6.60;62.93;99626.03;4367589;32;34149;-84
2023/01/21 10:06:44;;;;;;;3.83;1.08;;;;;;;6.56;63.09;99632.28;4362848;32;33771;-83
2023/01/21 10:09:44;;;;;;;0.32;0.32;;;;;;;6.36;64.02;99620.63;4353058;32;34338;-84
2023/01/21 10:12:24;;;;;;;11.68;1.60;;;;;;;6.37;64.30;99626.72;4375802;32;33376;-84
2023/01/21 10:15:26;;;;;;;4.78;2.95;;;;;;;6.39;64.12;99625.75;4374117;32;32717;-82
2023/01/21 10:17:58;;;;;;;4.93;2.67;;;;;;;6.49;63.96;99628.09;4348681;32;33079;-83
2023/01/21 10:20:33;;;;;;;0.82;0.82;;;;;;;6.35;64.49;99628.50;4373548;32;34036;-83
2023/01/21 10:23:17;;;;;;;1.12;1.12;;;;;;;6.35;64.54;99631.12;4368489;32;33598;-83
2023/01/21 10:25:47;;;;;;;0.62;0.62;;;;;;;6.29;64.96;99640.03;4369464;32;34070;-83
2023/01/21 10:28:24;;;;;;;1.45;1.42;;;;;;;6.37;64.45;99632.81;4374866;32;33488;-83
2023/01/21 10:30:53;;;;;;;2.25;2.08;;;;;;;6.80;63.07;99635.91;4363677;32;34901;-83
2023/01/21 10:33:24;;;;;;;0.82;0.82;;;;;;;6.99;62.11;99639.69;4369566;32;33551;-83
2023/01/21 10:36:14;;;;;;;0.30;0.30;;;;;;;6.88;62.15;99634.78;4345553;32;32597;-83
2023/01/21 10:39:22;;;;;;;0.37;0.37;;;;;;;6.85;62.14;99642.72;4382736;32;33351;-83
2023/01/21 10:42:15;;;;;;;0.68;0.57;;;;;;;6.51;63.67;99640.28;4370994;32;33529;-83
2023/01/21 10:44:48;;;;;;;0.85;0.85;;;;;;;6.41;64.26;99637.06;4367616;32;33661;-83
2023/01/21 10:47:28;;;;;;;1.65;1.55;;;;;;;6.44;64.12;99645.75;4370556;32;32799;-83
2023/01/21 10:50:10;;;;;;;2.75;2.00;;;;;;;6.53;64.00;99650.72;4370652;32;33774;-83
2023/01/21 10:52:55;;;;;;;0.70;0.70;;;;;;;6.45;64.38;99653.56;4371418;32;33817;-83
2023/01/21 10:55:52;;;;;;;0.57;0.57;;;;;;;6.80;63.28;99652.53;4379370;32;33809;-83
2023/01/21 10:58:38;;;;;;;0.10;0.10;;;;;;;6.85;62.83;99637.47;4378591;32;33151;-83
2023/01/21 11:01:15;;;;;;;0.15;0.15;;;;;;;6.90;62.43;99637.34;4367953;32;33030;-83
2023/01/21 11:03:46;;;;;;;0.30;0.25;;;;;;;6.76;63.15;99639.53;4362936;32;34008;-83
2023/01/21 11:06:16;;;;;;;1.35;1.25;;;;;;;6.71;63.26;99642.31;4370724;32;33928;-83
2023/01/21 11:08:47;;;;;;;1.87;1.75;;;;;;;6.75;63.32;99632.56;4377872;32;33260;-83
2023/01/21 11:11:19;;;;;;;2.03;1.92;;;;;;;7.02;61.99;99631.69;4381944;32;33542;-83
2023/01/21 11:13:47;;;;;;;3.17;2.90;;;;;;;6.89;62.71;99631.25;4377530;32;34439;-83
2023/01/21 11:16:35;;;;;;;5.20;1.98;;;;;;;7.03;62.03;99638.69;4378481;32;32236;-83
2023/01/21 11:19:05;;;;;;;3.58;2.17;;;;;;;6.98;62.26;99626.59;4391481;32;33060;-83
2023/01/21 11:21:34;;;;;;;0.05;0.05;;;;;;;7.10;61.53;99636.72;4383036;32;32826;-83
2023/01/21 11:24:03;;;;;;;4.22;3.03;;;;;;;6.97;61.99;99628.34;4379991;32;33062;-83
2023/01/21 11:26:34;;;;;;;0.93;0.93;;;;;;;7.08;61.75;99630.66;4377114;32;33390;-83
2023/01/21 11:29:14;;;;;;;1.67;1.33;;;;;;;7.13;61.39;99628.75;4378517;32;33100;-83
2023/01/21 11:31:44;;;;;;;1.37;0.85;;;;;;;7.07;61.19;99623.66;4378100;32;34163;-83
2023/01/21 11:34:13;;;;;;;1.08;0.68;;;;;;;7.10;60.80;99623.59;4377918;32;33114;-83
2023/01/21 11:37:10;;;;;;;0.77;0.77;;;;;;;6.81;61.88;99629.75;4378036;32;32465;-83
2023/01/21 11:39:43;;;;;;;4.00;2.25;;;;;;;6.87;62.36;99617.28;4363340;32;32378;-83
2023/01/21 11:42:16;;;;;;;3.12;2.15;;;;;;;6.91;62.57;99618.06;4380204;32;32702;-83
2023/01/21 11:45:00;;;;;;;0.30;0.30;;;;;;;7.09;62.07;99621.88;4382465;32;32912;-83
2023/01/21 11:47:45;;;;;;;1.70;1.65;;;;;;;7.12;61.45;99616.50;4388800;32;34503;-83
2023/01/21 11:50:21;;;;;;;1.33;1.27;;;;;;;7.00;61.87;99616.91;4359515;32;34683;-83
2023/01/21 11:53:10;;;;;;;1.98;1.75;;;;;;;7.10;61.03;99613.06;4390366;32;33391;-83
2023/01/21 11:55:44;;;;;;;1.15;1.05;;;;;;;6.98;61.66;99613.47;4392911;32;33619;-83
2023/01/21 11:58:22;;;;;;;0.17;0.17;;;;;;;6.93;62.17;99617.12;4378254;32;33752;-83
2023/01/21 12:00:53;;;;;;;0.25;0.25;;;;;;;7.01;61.73;99621.25;4373584;32;33591;-83
2023/01/21 12:03:24;;;;;;;1.65;1.12;;;;;;;6.77;62.49;99626.34;4384240;32;33731;-83
2023/01/21 12:05:52;;;;;;;1.10;1.08;;;;;;;6.93;62.50;99630.25;4382457;32;33383;-83
2023/01/21 12:08:30;;;;;;;0.75;0.75;;;;;;;6.89;62.63;99623.38;4365946;32;33951;-83